Hauptseite
METAR-TAF:

METAR-TAF

Flughäfen :

Flughafen Mexiko-Stadt

Mexiko-Stadt, Mexiko

Breite: 19-26N, Länge: 099-06W, Höhe: 2238 m

Beobachtung

Neuester Wetterbericht von vor 21 Minuten, um 10:48 UTC
Wind 5 kt aus Ost/Südost
Temperatur 8°C
Luftfeuchtigkeit 46%
Luftdruck 1026 hPa
Sichtweite: 19.3 km
Himmel klar

METAR: MMMX 221048Z 11005KT 12SM SKC 08/M03 A3031 NOSIG

Zeit: 05:09 (11:09 UTC)

Prognose

Neuester Wetterbericht von vor 6 Stunden und 59 Minuten, um 04:10 UTC
Gültige Prognose vom 22 um 06 UTC bis 23 um 12 UTC
Wind 5 kt aus Ost/Nordost
Sichtweite: 10 km
Himmel klar
Ab 22 um 1800 UTC
Wind 10 kt aus Süd/Südost
Sichtweite: 10 km
Aufgelockert bewölkt in der Höhe von 25000 ft
Ab 23 um 0600 UTC
Wind 5 kt aus Ost/Südost
Sichtweite: 10 km
Himmel klar

TAF: MMMX 220410Z 2206/2312 06005KT P6SM SKC TX23/2221Z TN06/2212Z FM221800 16010KT P6SM SCT250 FM230600 12005KT P6SM SKC

Wetterbeobachtungen und Prognosen von mehr als 4000 Flughäfen (METAR und TAF Bericht).

Die verfügbaren Stationen werden durch gelbe und rote Markierungen auf der Karte dargestellt.

Führen Sie die Maus auf sie, um den Namen der Station zu sehen.

Darauf klicken, um die Beobachtung von Wetterbeobachtungen und Prognosen zu sehen.

Um die Karte zu ändern : klicken Sie auf den grünen Tasten mit einem schwarzen Kreuz Zum Vergrößern, auf den grünen Button mit einem Gedankenstrich zu verkleinern, oder auf die grünen Pfeile für benachbarte Karten.


METAR-TAF: